Terminal Aerodrome Forecast
Issued by NWS

Home | Current Version | Previous Version | Graphics & Text | Print | Product List | Glossary On
Versions: 1 2 3 4 5 6 7 8 9 10 11 12 13 14 15 16 17
000
FTUS43 KBIS 222327
TAFJMS
TAF
KJMS 222327Z 2300/2324 29021G30KT P6SM SCT110
     FM230400 30018G27KT P6SM FEW040 SCT070
     FM230600 30016G25KT P6SM BKN025 OVC035
     FM231500 31021G31KT P6SM SCT035 BKN045=

USA.gov is the U.S. government's official web portal to all federal, state and local government web resources and services.